Time;durP1;ratioP1;P1;durP2;ratioP2;P2;SDS_P1;SDS_P2;PMS_P1;PMS_P2;Temp;Humidity;BMP_temperature;BMP_pressure;BME280_temperature;BME280_humidity;BME280_pressure;Samples;Min_cycle;Max_cycle;Signal;HPM_P1;HPM_P2
2023/02/01 00:00:18;;;;;;;2.80;2.60;;;5.20;99.90;;;;;;5013328;28;20200;-76
2023/02/01 00:02:45;;;;;;;2.15;2.05;;;5.20;99.90;;;;;;5012831;28;20669;-76
2023/02/01 00:05:12;;;;;;;3.08;1.20;;;5.20;99.90;;;;;;5012891;28;20219;-76
2023/02/01 00:07:39;;;;;;;7.78;2.00;;;5.20;99.90;;;;;;5012686;28;20203;-76
2023/02/01 00:10:09;;;;;;;0.50;0.40;;;5.10;99.90;;;;;;5013041;28;20203;-76
2023/02/01 00:12:36;;;;;;;1.85;1.75;;;5.20;99.90;;;;;;5012736;28;20676;-76
2023/02/01 00:15:02;;;;;;;2.97;2.63;;;5.20;99.90;;;;;;5012539;28;20227;-76
2023/02/01 00:17:29;;;;;;;0.50;0.40;;;5.30;99.90;;;;;;5012850;28;20203;-77
2023/02/01 00:19:56;;;;;;;1.13;1.02;;;5.30;99.90;;;;;;5012885;28;20207;-76
2023/02/01 00:22:23;;;;;;;0.50;0.40;;;5.30;99.90;;;;;;5012940;28;20215;-76
2023/02/01 00:24:50;;;;;;;0.50;0.40;;;5.30;99.90;;;;;;5012132;28;20243;-76
2023/02/01 00:27:20;;;;;;;2.10;1.90;;;5.30;99.90;;;;;;5012805;28;20283;-76
2023/02/01 00:29:48;;;;;;;0.80;0.68;;;5.40;99.90;;;;;;5012666;28;20211;-77
2023/02/01 00:32:15;;;;;;;1.73;1.13;;;5.40;99.90;;;;;;5012772;28;20202;-76
2023/02/01 00:34:41;;;;;;;0.93;0.65;;;5.40;99.90;;;;;;5011642;28;20598;-76
2023/02/01 00:37:08;;;;;;;0.60;0.60;;;5.40;99.90;;;;;;5012715;28;20724;-76
2023/02/01 00:39:35;;;;;;;0.65;0.65;;;5.40;99.90;;;;;;5012412;28;20282;-76
2023/02/01 00:42:02;;;;;;;8.98;4.38;;;5.50;99.90;;;;;;5012509;28;20791;-76
2023/02/01 00:44:33;;;;;;;2.30;1.27;;;5.50;99.90;;;;;;5012264;28;20731;-76
2023/02/01 00:47:01;;;;;;;1.15;1.00;;;5.50;99.90;;;;;;5012543;28;20607;-76
2023/02/01 00:49:28;;;;;;;0.50;0.40;;;5.50;99.90;;;;;;5011978;28;20200;-76
2023/02/01 00:51:55;;;;;;;0.50;0.40;;;5.50;99.90;;;;;;5012463;28;20608;-76
2023/02/01 00:54:22;;;;;;;0.50;0.50;;;5.40;99.90;;;;;;5012093;28;20712;-76
2023/02/01 00:56:49;;;;;;;0.70;0.70;;;5.50;99.90;;;;;;5012457;28;20203;-76
2023/02/01 00:59:16;;;;;;;0.60;0.60;;;5.50;99.90;;;;;;5012549;28;20195;-76
2023/02/01 01:01:44;;;;;;;0.95;0.95;;;5.50;99.90;;;;;;5012333;28;20556;-77
2023/02/01 01:04:11;;;;;;;1.80;1.20;;;5.50;99.90;;;;;;5013023;28;20212;-76
2023/02/01 01:06:38;;;;;;;16.20;1.80;;;5.60;99.90;;;;;;5012631;28;20206;-76
2023/02/01 01:09:07;;;;;;;1.75;1.17;;;5.60;99.90;;;;;;5012556;28;20188;-76
2023/02/01 01:11:35;;;;;;;2.00;0.60;;;5.60;99.90;;;;;;5011936;28;20194;-76
2023/02/01 01:14:02;;;;;;;4.05;1.77;;;5.60;99.90;;;;;;5012109;28;20212;-76
2023/02/01 01:16:31;;;;;;;0.70;0.70;;;5.70;99.90;;;;;;5012258;28;20299;-77
2023/02/01 01:19:00;;;;;;;0.55;0.52;;;5.70;99.90;;;;;;5012263;28;20192;-77
2023/02/01 01:21:27;;;;;;;5.25;2.08;;;5.70;99.90;;;;;;5011811;28;20215;-76
2023/02/01 01:23:54;;;;;;;2.22;0.93;;;5.70;99.90;;;;;;5012187;28;20285;-76
2023/02/01 01:26:23;;;;;;;0.60;0.60;;;5.70;99.90;;;;;;5012179;28;20580;-78
2023/02/01 01:28:50;;;;;;;0.90;0.68;;;5.80;99.90;;;;;;5012164;28;20203;-76
2023/02/01 01:31:19;;;;;;;0.88;0.82;;;5.80;99.90;;;;;;5012249;28;20184;-76
2023/02/01 01:33:49;;;;;;;0.80;0.77;;;5.80;99.90;;;;;;5011543;28;20254;-76
2023/02/01 01:36:17;;;;;;;17.75;2.05;;;5.80;99.90;;;;;;5011994;28;20195;-76
2023/02/01 01:38:44;;;;;;;2.35;1.70;;;5.80;99.90;;;;;;5012041;28;20198;-76
2023/02/01 01:41:16;;;;;;;1.30;1.30;;;5.80;99.90;;;;;;5011864;28;20215;-76
2023/02/01 01:43:55;;;;;;;0.63;0.63;;;5.80;99.90;;;;;;5012153;28;20180;-76
2023/02/01 01:46:24;;;;;;;2.05;1.95;;;5.80;99.90;;;;;;5011156;28;20176;-76
2023/02/01 01:48:57;;;;;;;0.75;0.75;;;5.80;99.90;;;;;;5012085;28;20188;-76
2023/02/01 01:51:29;;;;;;;3.20;1.85;;;5.80;99.90;;;;;;5011415;28;20194;-76
2023/02/01 01:54:01;;;;;;;0.50;0.40;;;5.70;99.90;;;;;;5011765;28;20254;-76
2023/02/01 01:56:29;;;;;;;1.40;1.15;;;5.70;99.90;;;;;;5011534;28;20235;-76
2023/02/01 01:58:57;;;;;;;0.82;0.82;;;5.70;99.90;;;;;;5011868;28;20977;-76
2023/02/01 02:01:23;;;;;;;2.55;2.35;;;5.70;99.90;;;;;;5013609;28;20304;-78
2023/02/01 02:03:52;;;;;;;17.30;2.15;;;5.70;99.90;;;;;;5017855;28;20191;-77
2023/02/01 02:06:43;;;;;;;29.88;3.40;;;5.60;99.90;;;;;;5017758;28;20207;-77
2023/02/01 02:09:12;;;;;;;2.15;0.63;;;5.60;99.90;;;;;;5018501;28;20186;-77
2023/02/01 02:11:39;;;;;;;9.45;3.70;;;5.60;99.90;;;;;;5018132;28;20227;-78
2023/02/01 02:14:08;;;;;;;0.65;0.63;;;5.60;99.90;;;;;;5018077;28;20294;-77
2023/02/01 02:16:45;;;;;;;12.02;2.60;;;5.50;99.90;;;;;;5017872;28;20192;-78
2023/02/01 02:19:34;;;;;;;0.60;0.60;;;5.50;99.90;;;;;;5017824;28;20195;-77
2023/02/01 02:22:26;;;;;;;11.93;1.55;;;5.50;99.90;;;;;;5017456;28;20204;-77
2023/02/01 02:25:14;;;;;;;1.05;0.70;;;5.40;99.90;;;;;;5017981;28;20685;-77
2023/02/01 02:27:59;;;;;;;1.05;0.98;;;5.40;99.90;;;;;;4984795;28;20202;-77
2023/02/01 02:31:13;;;;;;;1.02;1.02;;;5.30;99.90;;;;;;5017831;28;20278;-77
2023/02/01 02:33:55;;;;;;;6.68;0.82;;;5.30;99.90;;;;;;4956771;29;20194;-77
2023/02/01 02:36:34;;;;;;;1.23;1.17;;;5.30;99.90;;;;;;5016158;28;20249;-78
2023/02/01 02:39:08;;;;;;;0.55;0.55;;;5.30;99.90;;;;;;5017664;28;20200;-77
2023/02/01 02:47:33;;;;;;;5.55;1.98;;;5.40;99.90;;;;;;5017712;28;20194;-77
2023/02/01 02:55:46;;;;;;;0.50;0.40;;;5.20;99.90;;;;;;5017007;28;20218;-77
2023/02/01 03:04:08;;;;;;;0.60;0.40;;;5.10;99.90;;;;;;5017100;28;20195;-77
2023/02/01 03:06:39;;;;;;;0.50;0.50;;;5.00;99.90;;;;;;5016666;28;20291;-77
2023/02/01 03:09:13;;;;;;;4.55;1.60;;;4.90;99.90;;;;;;5016610;28;20198;-77
2023/02/01 03:14:30;;;;;;;3.42;1.15;;;4.90;99.90;;;;;;5016270;28;20219;-77
2023/02/01 03:17:02;;;;;;;1.05;1.05;;;4.90;99.90;;;;;;5017599;28;20544;-78
2023/02/01 03:19:35;;;;;;;3.42;0.98;;;4.90;99.90;;;;;;5017031;28;20287;-77
2023/02/01 03:22:05;;;;;;;0.55;0.45;;;4.90;99.90;;;;;;5016966;28;20200;-77
2023/02/01 03:24:37;;;;;;;3.55;1.58;;;5.00;99.90;;;;;;5016722;28;20212;-77
2023/02/01 03:27:11;;;;;;;1.70;0.50;;;5.00;99.90;;;;;;5017145;28;20283;-77
2023/02/01 03:29:43;;;;;;;3.95;2.20;;;5.00;99.90;;;;;;5017200;28;20635;-77
2023/02/01 03:32:10;;;;;;;0.50;0.40;;;5.10;99.90;;;;;;5016824;28;20207;-77
2023/02/01 03:34:37;;;;;;;5.57;1.73;;;5.10;99.90;;;;;;5015507;28;20224;-77
2023/02/01 03:37:10;;;;;;;8.88;0.60;;;5.10;99.90;;;;;;5016431;28;20196;-77
2023/02/01 03:39:42;;;;;;;0.50;0.50;;;5.20;99.90;;;;;;5015951;28;20279;-78
2023/02/01 03:42:14;;;;;;;21.65;1.63;;;5.20;99.90;;;;;;5015622;28;20476;-77
2023/02/01 03:44:46;;;;;;;0.70;0.50;;;5.20;99.90;;;;;;5015596;28;20211;-77
2023/02/01 03:47:19;;;;;;;0.68;0.68;;;5.20;99.90;;;;;;5016101;28;20192;-77
2023/02/01 03:49:50;;;;;;;1.58;1.48;;;5.20;99.90;;;;;;5015817;28;20184;-77
2023/02/01 03:52:26;;;;;;;1.50;1.40;;;5.30;99.90;;;;;;5016141;28;20183;-77
2023/02/01 03:54:54;;;;;;;1.55;0.50;;;5.20;99.90;;;;;;5014745;28;20215;-77
2023/02/01 03:57:26;;;;;;;0.77;0.77;;;5.20;99.90;;;;;;5015839;28;20279;-77
2023/02/01 03:59:53;;;;;;;0.50;0.50;;;5.30;99.90;;;;;;5014986;28;20196;-77
2023/02/01 04:02:20;;;;;;;0.85;0.60;;;5.30;99.90;;;;;;5015666;28;20208;-77
2023/02/01 04:04:47;;;;;;;7.03;1.70;;;5.30;99.90;;;;;;5014782;28;20306;-77
2023/02/01 04:07:14;;;;;;;1.73;1.10;;;5.30;99.90;;;;;;5015169;28;20695;-77
2023/02/01 04:09:42;;;;;;;1.13;1.02;;;5.30;99.90;;;;;;5014965;28;20282;-77
2023/02/01 04:12:09;;;;;;;1.55;1.45;;;5.30;99.90;;;;;;5015222;28;20195;-77
2023/02/01 04:14:36;;;;;;;13.65;2.10;;;5.30;99.90;;;;;;5015973;28;20218;-77
2023/02/01 04:17:03;;;;;;;2.25;1.73;;;5.40;99.90;;;;;;5015279;28;20727;-77
2023/02/01 04:19:29;;;;;;;0.93;0.93;;;5.40;99.90;;;;;;5015516;28;20286;-77
2023/02/01 04:21:56;;;;;;;0.60;0.60;;;5.30;99.90;;;;;;5015295;28;20218;-75
2023/02/01 04:24:23;;;;;;;0.93;0.93;;;5.30;99.90;;;;;;5012536;28;20231;-78
2023/02/01 04:26:51;;;;;;;4.25;1.67;;;5.40;99.90;;;;;;5013576;28;20199;-78
2023/02/01 04:29:18;;;;;;;1.92;1.13;;;5.30;99.90;;;;;;5013659;28;20657;-77
2023/02/01 04:31:46;;;;;;;1.88;0.85;;;5.30;99.90;;;;;;5013322;28;20287;-77
2023/02/01 04:34:13;;;;;;;1.50;0.73;;;5.30;99.90;;;;;;5013550;28;20627;-77
2023/02/01 04:36:39;;;;;;;16.30;2.92;;;5.30;99.90;;;;;;5013287;28;20180;-76
2023/02/01 04:39:06;;;;;;;5.43;1.50;;;5.20;99.90;;;;;;5013064;28;20284;-78
2023/02/01 04:41:33;;;;;;;2.05;1.60;;;5.20;99.90;;;;;;5012931;28;20198;-78
2023/02/01 04:44:01;;;;;;;0.50;0.40;;;5.20;99.90;;;;;;5012700;28;20660;-77
2023/02/01 04:46:28;;;;;;;0.50;0.40;;;5.20;99.90;;;;;;4993045;28;20193;-77
2023/02/01 04:48:55;;;;;;;3.72;1.35;;;5.20;99.90;;;;;;4993198;28;20188;-78
2023/02/01 04:51:22;;;;;;;0.50;0.40;;;5.30;99.90;;;;;;4993422;28;20227;-78
2023/02/01 04:53:48;;;;;;;2.08;0.40;;;5.20;99.90;;;;;;4993522;28;20205;-77
2023/02/01 04:56:15;;;;;;;1.45;1.25;;;5.30;99.90;;;;;;4993417;28;20299;-78
2023/02/01 04:58:42;;;;;;;1.85;1.40;;;5.30;99.90;;;;;;4993006;28;20614;-77
2023/02/01 05:01:10;;;;;;;0.50;0.50;;;5.30;99.90;;;;;;4992825;28;20291;-76
2023/02/01 05:03:37;;;;;;;0.60;0.60;;;5.30;99.90;;;;;;4993368;28;20299;-76
2023/02/01 05:06:04;;;;;;;1.30;1.30;;;5.30;99.90;;;;;;4992919;28;20303;-76
2023/02/01 05:08:32;;;;;;;0.50;0.40;;;5.30;99.90;;;;;;4993181;28;20207;-75
2023/02/01 05:11:02;;;;;;;1.67;1.58;;;5.30;99.90;;;;;;4993696;28;20212;-76
2023/02/01 05:16:14;;;;;;;1.65;1.55;;;5.10;99.90;;;;;;4985918;28;20192;-76
2023/02/01 05:18:40;;;;;;;1.10;1.10;;;5.10;99.90;;;;;;4993274;28;20197;-78
2023/02/01 05:21:07;;;;;;;0.80;0.70;;;5.00;99.90;;;;;;4992713;28;20201;-78
2023/02/01 05:24:09;;;;;;;0.50;0.40;;;5.00;99.90;;;;;;5001454;28;20216;-78
2023/02/01 05:26:21;;;;;;;1.00;0.77;;;5.00;99.90;;;;;;4992862;28;20193;-77
2023/02/01 05:28:48;;;;;;;3.63;1.13;;;5.00;99.90;;;;;;5012084;28;20612;-77
2023/02/01 05:31:16;;;;;;;0.50;0.40;;;4.90;99.90;;;;;;5012481;28;20280;-76
2023/02/01 05:33:43;;;;;;;0.52;0.52;;;4.90;99.90;;;;;;5011837;28;20267;-76
2023/02/01 05:36:10;;;;;;;0.50;0.45;;;4.90;99.90;;;;;;5011962;28;20210;-77
2023/02/01 05:38:37;;;;;;;3.60;1.13;;;4.90;99.90;;;;;;5012332;28;20188;-76
2023/02/01 05:41:04;;;;;;;0.93;0.93;;;4.90;99.90;;;;;;5012562;28;20665;-77
2023/02/01 05:43:31;;;;;;;0.50;0.40;;;5.00;99.90;;;;;;5012208;28;20212;-77
2023/02/01 05:45:58;;;;;;;0.50;0.40;;;4.90;99.90;;;;;;5012309;28;20890;-77
2023/02/01 05:48:26;;;;;;;2.55;1.63;;;4.90;99.90;;;;;;5012377;28;20194;-77
2023/02/01 05:50:53;;;;;;;1.77;1.02;;;4.80;99.90;;;;;;5013368;28;20220;-76
2023/02/01 05:53:20;;;;;;;1.27;1.17;;;4.80;99.90;;;;;;5013392;28;20191;-76
2023/02/01 05:55:47;;;;;;;5.28;1.58;;;4.70;99.90;;;;;;5013019;28;20354;-77
2023/02/01 05:58:13;;;;;;;0.50;0.40;;;4.70;99.90;;;;;;5013671;28;20602;-77
2023/02/01 06:00:40;;;;;;;2.70;1.65;;;4.80;99.90;;;;;;5013092;28;20206;-77
2023/02/01 06:03:07;;;;;;;38.35;2.05;;;4.70;99.90;;;;;;5013418;28;20214;-77
2023/02/01 06:05:36;;;;;;;15.63;2.25;;;4.70;99.90;;;;;;5013634;28;20302;-77
2023/02/01 06:08:03;;;;;;;0.57;0.55;;;4.90;99.90;;;;;;5013274;28;20199;-76
2023/02/01 06:10:30;;;;;;;0.50;0.40;;;4.90;99.90;;;;;;5013071;28;20282;-77
2023/02/01 06:12:57;;;;;;;1.02;0.98;;;5.00;99.90;;;;;;5001864;28;20195;-76
2023/02/01 06:15:24;;;;;;;2.15;0.50;;;5.10;99.90;;;;;;4991697;28;20251;-76
2023/02/01 06:17:51;;;;;;;4.20;0.60;;;5.20;99.90;;;;;;4992229;28;20612;-76
2023/02/01 06:20:18;;;;;;;2.25;0.90;;;5.20;99.90;;;;;;4991803;28;20287;-76
2023/02/01 06:22:46;;;;;;;2.15;1.70;;;5.20;99.90;;;;;;4992068;28;20219;-75
2023/02/01 06:25:13;;;;;;;0.68;0.68;;;5.30;99.90;;;;;;4991882;28;20300;-76
2023/02/01 06:27:40;;;;;;;0.50;0.40;;;5.30;99.90;;;;;;5000445;28;20188;-76
2023/02/01 06:30:08;;;;;;;0.50;0.50;;;5.30;99.90;;;;;;5012321;28;20239;-76
2023/02/01 06:32:35;;;;;;;14.73;2.45;;;5.30;99.90;;;;;;5011232;28;20271;-77
2023/02/01 06:35:02;;;;;;;1.45;1.10;;;5.30;99.90;;;;;;5010565;28;20315;-77
2023/02/01 06:37:29;;;;;;;1.67;1.20;;;5.30;99.90;;;;;;5011293;28;20292;-75
2023/02/01 06:39:57;;;;;;;2.97;0.50;;;5.40;99.90;;;;;;5011907;28;20223;-76
2023/02/01 06:42:25;;;;;;;0.50;0.43;;;5.40;99.90;;;;;;5011364;28;20194;-77
2023/02/01 06:44:52;;;;;;;0.50;0.40;;;5.40;99.90;;;;;;5012287;28;20220;-76
2023/02/01 06:47:19;;;;;;;4.20;1.63;;;5.40;99.90;;;;;;5012097;28;20196;-76
2023/02/01 06:49:45;;;;;;;0.90;0.90;;;5.40;99.90;;;;;;5016015;28;20192;-77
2023/02/01 06:52:12;;;;;;;0.95;0.95;;;5.50;99.90;;;;;;5016097;28;20303;-76
2023/02/01 06:54:39;;;;;;;0.50;0.40;;;5.50;99.90;;;;;;5014572;28;20298;-77
2023/02/01 06:57:07;;;;;;;3.28;1.60;;;5.50;99.90;;;;;;4995572;28;20292;-76
2023/02/01 06:59:34;;;;;;;1.13;0.70;;;5.50;99.90;;;;;;4995027;28;20224;-76
2023/02/01 07:02:01;;;;;;;2.35;1.05;;;5.50;99.90;;;;;;4996479;28;20286;-77
2023/02/01 07:04:28;;;;;;;0.98;0.98;;;5.60;99.90;;;;;;5006287;28;20777;-76
2023/02/01 07:06:55;;;;;;;1.92;1.77;;;5.60;99.90;;;;;;5011535;28;20283;-76
2023/02/01 07:09:22;;;;;;;2.75;2.55;;;5.60;99.90;;;;;;4995720;28;20216;-76
2023/02/01 07:11:48;;;;;;;0.70;0.60;;;5.60;99.90;;;;;;5000712;28;20191;-77
2023/02/01 07:14:17;;;;;;;16.77;1.30;;;5.60;99.90;;;;;;4995576;28;20828;-77
2023/02/01 07:16:44;;;;;;;3.22;1.17;;;5.70;99.90;;;;;;4995200;28;20197;-76
2023/02/01 07:19:10;;;;;;;8.38;3.00;;;5.60;99.90;;;;;;4995955;28;20200;-77
2023/02/01 07:21:37;;;;;;;0.75;0.75;;;5.60;99.90;;;;;;4995599;28;20577;-77
2023/02/01 07:24:05;;;;;;;0.75;0.65;;;5.70;99.90;;;;;;4995308;28;20279;-76
2023/02/01 07:26:32;;;;;;;1.17;0.75;;;5.70;99.90;;;;;;4995138;28;20688;-77
2023/02/01 07:28:59;;;;;;;34.63;2.17;;;5.70;99.90;;;;;;4996111;28;20201;-76
2023/02/01 07:31:28;;;;;;;2.63;2.40;;;5.70;99.90;;;;;;4995439;28;20634;-77
2023/02/01 07:33:57;;;;;;;3.05;2.10;;;5.70;99.90;;;;;;5001113;28;20262;-78
2023/02/01 07:36:25;;;;;;;1.40;1.15;;;5.70;99.90;;;;;;5014032;28;20196;-77
2023/02/01 07:38:52;;;;;;;1.20;1.10;;;5.80;99.90;;;;;;5014492;28;20192;-76
2023/02/01 07:41:19;;;;;;;6.43;0.95;;;5.80;99.90;;;;;;5015930;28;20211;-78
2023/02/01 07:43:46;;;;;;;9.70;0.85;;;5.80;99.90;;;;;;5014732;28;20222;-77
2023/02/01 07:46:15;;;;;;;2.55;1.20;;;5.80;99.90;;;;;;5014846;28;20200;-77
2023/02/01 07:48:43;;;;;;;0.70;0.68;;;5.80;99.90;;;;;;5013939;28;20199;-77
2023/02/01 07:51:11;;;;;;;0.85;0.77;;;5.80;99.90;;;;;;5014459;28;20203;-76
2023/02/01 07:53:39;;;;;;;0.50;0.40;;;5.80;99.90;;;;;;5014579;28;20202;-77
2023/02/01 07:56:12;;;;;;;1.88;1.75;;;5.80;99.90;;;;;;5013742;28;20219;-76
2023/02/01 07:58:39;;;;;;;0.50;0.50;;;5.80;99.90;;;;;;5013036;28;20554;-75
2023/02/01 08:01:21;;;;;;;0.60;0.50;;;5.80;99.90;;;;;;5015076;28;20224;-76
2023/02/01 08:03:50;;;;;;;1.20;1.20;;;5.90;99.90;;;;;;5013868;28;20250;-75
2023/02/01 08:06:17;;;;;;;4.00;1.27;;;5.90;99.90;;;;;;5013822;28;20633;-76
2023/02/01 08:08:44;;;;;;;22.27;1.05;;;5.90;99.90;;;;;;5014712;28;20223;-76
2023/02/01 08:11:12;;;;;;;1.15;1.05;;;5.90;99.90;;;;;;5014600;28;20196;-77
2023/02/01 08:13:39;;;;;;;11.57;1.95;;;5.90;99.90;;;;;;5014461;28;20196;-76
2023/02/01 08:16:08;;;;;;;1.17;1.08;;;5.90;99.90;;;;;;5014153;28;20303;-77
2023/02/01 08:18:36;;;;;;;5.25;2.38;;;5.90;99.90;;;;;;5015079;28;20200;-76
2023/02/01 08:21:09;;;;;;;0.70;0.70;;;5.90;99.90;;;;;;5014537;28;20696;-77
2023/02/01 08:23:37;;;;;;;36.78;1.35;;;5.90;99.90;;;;;;5015462;28;20211;-78
2023/02/01 08:26:09;;;;;;;1.27;1.17;;;5.90;99.90;;;;;;5014675;28;20216;-76
2023/02/01 08:28:36;;;;;;;1.55;1.45;;;5.90;99.90;;;;;;5014013;28;20521;-77
2023/02/01 08:31:08;;;;;;;1.08;0.98;;;6.00;99.90;;;;;;5014116;28;20202;-77
2023/02/01 08:33:36;;;;;;;0.60;0.50;;;6.00;99.90;;;;;;5014027;28;20283;-74
2023/02/01 08:36:05;;;;;;;0.50;0.40;;;6.00;99.90;;;;;;5013742;28;20239;-76
2023/02/01 08:38:33;;;;;;;4.03;1.30;;;6.00;99.90;;;;;;5015931;28;20569;-76
2023/02/01 08:41:05;;;;;;;0.98;0.98;;;6.10;99.90;;;;;;5016224;28;20238;-75
2023/02/01 08:43:32;;;;;;;3.05;0.98;;;6.10;99.90;;;;;;5014856;28;20212;-77
2023/02/01 08:45:59;;;;;;;15.38;1.90;;;6.10;99.90;;;;;;5014386;28;20226;-77
2023/02/01 08:48:26;;;;;;;2.53;1.10;;;6.10;99.90;;;;;;5015014;28;20196;-77
2023/02/01 08:50:53;;;;;;;7.05;1.40;;;6.10;99.90;;;;;;5014199;28;20287;-77
2023/02/01 08:53:19;;;;;;;0.85;0.85;;;6.10;99.90;;;;;;5014207;28;20223;-77
2023/02/01 08:55:48;;;;;;;4.00;1.20;;;6.20;99.90;;;;;;5014101;28;20329;-77
2023/02/01 08:58:16;;;;;;;0.82;0.60;;;6.20;99.90;;;;;;5014785;28;20231;-77
2023/02/01 09:00:44;;;;;;;1.95;1.55;;;6.20;99.90;;;;;;5013116;28;20195;-77
2023/02/01 09:03:12;;;;;;;0.82;0.82;;;6.20;99.90;;;;;;5014836;28;20246;-77
2023/02/01 09:05:39;;;;;;;13.98;1.08;;;6.10;99.90;;;;;;5013626;28;20222;-77
2023/02/01 09:08:06;;;;;;;3.95;1.65;;;6.10;99.90;;;;;;5013518;28;20275;-78
2023/02/01 09:10:33;;;;;;;3.28;1.92;;;6.10;99.90;;;;;;5013207;28;20282;-77
2023/02/01 09:13:01;;;;;;;0.50;0.50;;;6.10;99.90;;;;;;5013290;28;20292;-78
2023/02/01 09:15:28;;;;;;;0.82;0.77;;;6.10;99.90;;;;;;5013445;28;20800;-77
2023/02/01 09:17:55;;;;;;;2.10;1.95;;;6.10;99.90;;;;;;5014141;28;20192;-77
2023/02/01 09:20:23;;;;;;;4.97;1.88;;;6.10;99.90;;;;;;5013857;28;20267;-77
2023/02/01 09:22:51;;;;;;;0.85;0.85;;;6.20;99.90;;;;;;5014264;28;20200;-77
2023/02/01 09:25:18;;;;;;;7.40;2.25;;;6.30;99.90;;;;;;5013473;28;20255;-78
2023/02/01 09:27:45;;;;;;;11.23;2.85;;;6.30;99.90;;;;;;5013946;28;20283;-78
2023/02/01 09:30:14;;;;;;;0.70;0.70;;;6.20;99.90;;;;;;5014209;28;20286;-77
2023/02/01 09:32:41;;;;;;;9.07;0.95;;;6.30;99.90;;;;;;5013826;28;20287;-77
2023/02/01 09:35:08;;;;;;;2.67;0.95;;;6.30;99.90;;;;;;5013738;28;20317;-78
2023/02/01 09:37:35;;;;;;;0.50;0.40;;;6.30;99.90;;;;;;5014778;28;20223;-78
2023/02/01 09:40:04;;;;;;;4.40;2.38;;;6.30;99.90;;;;;;5014855;28;20534;-77
2023/02/01 09:42:51;;;;;;;2.50;1.45;;;6.40;99.90;;;;;;5014056;28;20204;-77
2023/02/01 09:45:24;;;;;;;4.88;0.80;;;6.60;99.90;;;;;;5014899;28;20220;-78
2023/02/01 09:47:58;;;;;;;0.50;0.40;;;6.80;99.90;;;;;;5014215;28;20279;-76
2023/02/01 09:50:34;;;;;;;1.17;1.08;;;6.80;99.90;;;;;;5014969;28;20665;-79
2023/02/01 09:53:05;;;;;;;5.28;1.10;;;6.80;99.90;;;;;;5014229;28;20626;-76
2023/02/01 09:55:39;;;;;;;4.00;3.05;;;6.70;99.90;;;;;;5014098;28;20310;-77
2023/02/01 09:58:12;;;;;;;18.17;2.17;;;6.70;99.90;;;;;;5014132;28;20309;-77
2023/02/01 10:00:44;;;;;;;0.65;0.63;;;6.80;99.90;;;;;;5012296;28;20226;-78
2023/02/01 10:03:13;;;;;;;1.80;1.63;;;6.80;99.90;;;;;;5012359;28;20192;-78
2023/02/01 10:05:55;;;;;;;0.50;0.40;;;6.80;99.90;;;;;;5011824;28;20330;-77
2023/02/01 10:08:30;;;;;;;1.15;1.05;;;6.80;99.90;;;;;;5013126;28;20195;-77
2023/02/01 10:11:06;;;;;;;4.65;2.03;;;6.80;99.90;;;;;;5012056;28;20187;-76
2023/02/01 10:13:52;;;;;;;2.30;1.80;;;6.70;99.90;;;;;;5012285;28;20275;-77
2023/02/01 10:16:33;;;;;;;0.50;0.50;;;6.70;99.90;;;;;;5012263;28;20239;-78
2023/02/01 10:19:21;;;;;;;5.47;3.33;;;6.70;99.90;;;;;;5012430;28;20200;-77
2023/02/01 10:21:55;;;;;;;5.82;2.75;;;6.80;99.90;;;;;;5012709;28;20198;-77
2023/02/01 10:24:38;;;;;;;2.25;1.38;;;6.80;99.90;;;;;;5015158;28;20549;-76
2023/02/01 10:27:16;;;;;;;1.30;1.15;;;6.80;99.90;;;;;;5016368;28;20202;-77
2023/02/01 10:29:45;;;;;;;4.20;3.00;;;6.80;99.90;;;;;;5015067;28;20199;-77
2023/02/01 10:32:20;;;;;;;6.45;2.60;;;6.90;99.90;;;;;;5017360;28;20211;-77
2023/02/01 10:34:51;;;;;;;1.73;1.63;;;7.00;99.90;;;;;;5015313;28;20220;-76
2023/02/01 10:37:33;;;;;;;4.30;1.67;;;6.90;99.90;;;;;;5016712;28;20282;-78
2023/02/01 10:40:06;;;;;;;0.60;0.60;;;6.90;99.90;;;;;;5016568;28;20645;-77
2023/02/01 10:42:33;;;;;;;0.50;0.40;;;6.90;99.90;;;;;;5015672;28;20510;-77
2023/02/01 10:45:02;;;;;;;6.70;1.48;;;6.80;99.90;;;;;;5015067;28;20307;-77
2023/02/01 10:47:31;;;;;;;2.30;1.20;;;6.80;99.90;;;;;;5015083;28;20223;-77
2023/02/01 10:50:14;;;;;;;2.17;1.23;;;6.70;99.90;;;;;;5015593;28;20196;-77
2023/02/01 10:52:47;;;;;;;0.50;0.40;;;6.70;99.90;;;;;;5016366;28;20184;-77
2023/02/01 10:55:49;;;;;;;1.40;0.50;;;6.80;99.90;;;;;;5015825;28;20218;-77
2023/02/01 10:58:17;;;;;;;2.28;2.17;;;6.90;99.90;;;;;;4954290;29;20293;-77
2023/02/01 11:00:48;;;;;;;3.72;3.20;;;6.90;99.90;;;;;;5003904;28;20222;-77
2023/02/01 11:03:35;;;;;;;1.55;1.48;;;6.90;99.90;;;;;;5016040;28;20614;-78
2023/02/01 11:06:03;;;;;;;1.13;1.02;;;7.00;99.90;;;;;;5014820;28;20219;-77
2023/02/01 11:08:31;;;;;;;4.82;2.30;;;7.00;99.90;;;;;;5014925;28;20200;-77
2023/02/01 11:11:00;;;;;;;0.75;0.75;;;6.90;99.90;;;;;;5014480;28;20565;-76
2023/02/01 11:13:31;;;;;;;0.93;0.70;;;7.00;99.90;;;;;;5015256;28;20214;-77
2023/02/01 11:15:59;;;;;;;4.40;0.90;;;7.10;99.90;;;;;;5014208;28;20220;-77
2023/02/01 11:18:29;;;;;;;7.20;1.55;;;7.20;99.90;;;;;;5015668;28;20263;-77
2023/02/01 11:20:56;;;;;;;5.22;1.80;;;7.40;99.90;;;;;;5015387;28;20184;-77
2023/02/01 11:23:26;;;;;;;3.60;2.30;;;7.40;99.90;;;;;;5015171;28;20294;-78
2023/02/01 11:25:55;;;;;;;4.13;2.05;;;7.20;99.90;;;;;;5014310;28;20231;-76
2023/02/01 11:28:25;;;;;;;0.60;0.60;;;7.10;99.90;;;;;;5014587;28;20290;-77
2023/02/01 11:30:55;;;;;;;0.68;0.68;;;7.10;99.90;;;;;;5014761;28;20214;-77
2023/02/01 11:33:31;;;;;;;1.00;0.95;;;7.00;99.90;;;;;;5014231;28;20204;-77
2023/02/01 11:35:59;;;;;;;2.80;1.90;;;7.10;99.90;;;;;;5013961;28;20229;-77
2023/02/01 11:38:29;;;;;;;1.92;1.80;;;7.10;99.90;;;;;;5014979;28;20561;-77
2023/02/01 11:41:11;;;;;;;0.73;0.73;;;7.10;99.90;;;;;;5014286;28;20179;-76
2023/02/01 11:43:38;;;;;;;4.00;1.98;;;7.10;99.90;;;;;;5013754;28;20184;-77
2023/02/01 11:46:22;;;;;;;0.50;0.40;;;7.20;99.90;;;;;;5013034;28;20227;-77
2023/02/01 11:48:50;;;;;;;3.30;0.98;;;7.10;99.90;;;;;;5014486;28;20188;-77
2023/02/01 11:51:37;;;;;;;7.90;1.13;;;7.10;99.90;;;;;;5013434;28;20192;-76
2023/02/01 11:54:23;;;;;;;9.88;2.90;;;6.90;99.90;;;;;;5013613;28;20662;-77
2023/02/01 11:57:05;;;;;;;16.80;1.95;;;6.80;99.90;;;;;;5013037;28;20196;-77
2023/02/01 12:00:00;;;;;;;0.50;0.40;;;6.70;99.90;;;;;;5013755;28;20259;-77
2023/02/01 12:02:56;;;;;;;1.73;1.25;;;6.50;99.90;;;;;;5013753;28;20684;-78
2023/02/01 12:05:37;;;;;;;1.63;1.52;;;6.40;99.90;;;;;;5013493;28;20676;-77
2023/02/01 12:08:26;;;;;;;3.20;0.75;;;6.40;99.90;;;;;;5012811;28;20186;-78
2023/02/01 12:11:07;;;;;;;2.15;2.05;;;6.40;99.90;;;;;;5015816;28;20283;-77
2023/02/01 12:13:48;;;;;;;1.00;0.95;;;6.30;99.90;;;;;;5015989;28;20294;-77
2023/02/01 12:16:26;;;;;;;1.40;1.25;;;6.20;99.90;;;;;;5015232;28;20562;-77
2023/02/01 12:19:12;;;;;;;1.08;0.98;;;6.20;99.90;;;;;;5014981;28;20610;-78
2023/02/01 12:22:06;;;;;;;1.00;1.00;;;6.20;99.90;;;;;;5014928;28;20259;-77
2023/02/01 12:24:55;;;;;;;1.83;1.33;;;6.30;99.90;;;;;;5014864;28;20219;-77
2023/02/01 12:28:09;;;;;;;0.65;0.65;;;6.40;99.90;;;;;;5015484;28;20223;-77
2023/02/01 12:30:58;;;;;;;0.88;0.60;;;6.40;99.90;;;;;;4988485;28;20286;-77
2023/02/01 12:33:38;;;;;;;1.65;1.15;;;6.40;99.90;;;;;;5003594;28;20203;-78
2023/02/01 12:36:14;;;;;;;8.68;1.77;;;6.40;99.90;;;;;;5013228;28;20310;-77
2023/02/01 12:38:51;;;;;;;4.53;0.98;;;6.50;99.90;;;;;;5013865;28;20175;-78
2023/02/01 12:41:42;;;;;;;0.93;0.50;;;6.50;99.90;;;;;;5015159;28;20188;-77
2023/02/01 12:44:13;;;;;;;0.88;0.73;;;6.60;99.90;;;;;;5017443;28;20227;-77
2023/02/01 12:46:45;;;;;;;0.50;0.40;;;6.60;99.90;;;;;;5014212;28;20239;-78
2023/02/01 12:49:16;;;;;;;1.95;1.63;;;6.60;99.90;;;;;;5014723;28;20244;-77
2023/02/01 12:51:47;;;;;;;1.10;1.02;;;6.70;99.90;;;;;;5015410;28;20561;-77
2023/02/01 12:54:21;;;;;;;1.38;0.93;;;6.70;99.90;;;;;;5016105;28;20251;-78
2023/02/01 12:56:52;;;;;;;0.88;0.70;;;6.70;99.90;;;;;;5015705;28;20280;-77
2023/02/01 12:59:25;;;;;;;4.22;2.38;;;6.80;99.90;;;;;;5017566;28;20297;-78
2023/02/01 13:01:58;;;;;;;5.10;1.60;;;6.80;99.90;;;;;;5014472;28;20196;-77
2023/02/01 13:04:31;;;;;;;0.50;0.40;;;6.80;99.90;;;;;;5015944;28;20628;-75
2023/02/01 13:07:07;;;;;;;0.90;0.70;;;6.70;99.90;;;;;;5017059;28;20176;-77
2023/02/01 13:09:42;;;;;;;0.93;0.93;;;6.70;99.90;;;;;;5014420;28;20187;-77
2023/02/01 13:12:14;;;;;;;1.05;1.05;;;6.80;99.90;;;;;;5013428;28;20200;-76
2023/02/01 13:14:47;;;;;;;5.22;0.98;;;6.80;99.90;;;;;;5012959;28;20302;-76
2023/02/01 13:17:17;;;;;;;2.88;0.88;;;6.70;99.90;;;;;;5016125;28;20199;-76
2023/02/01 13:19:50;;;;;;;6.35;1.08;;;6.70;99.90;;;;;;5012939;28;20204;-76
2023/02/01 13:22:22;;;;;;;0.60;0.50;;;6.70;99.90;;;;;;5013514;28;20176;-76
2023/02/01 13:24:53;;;;;;;2.00;0.90;;;6.70;99.90;;;;;;5011931;28;20224;-75
2023/02/01 13:27:20;;;;;;;2.08;1.35;;;6.80;99.90;;;;;;5012454;28;20219;-76
2023/02/01 13:29:55;;;;;;;0.85;0.63;;;6.80;99.90;;;;;;5012305;28;20560;-76
2023/02/01 13:33:00;;;;;;;0.77;0.77;;;6.80;99.90;;;;;;5013040;28;20291;-76
2023/02/01 13:35:56;;;;;;;1.08;1.05;;;6.90;99.90;;;;;;4999444;28;20637;-76
2023/02/01 13:38:54;;;;;;;1.10;0.70;;;6.90;99.90;;;;;;5013169;28;20229;-77